sensor_id;sensor_type;location;lat;lon;timestamp;temperature;humidity
28524;DHT22;15734;50.904;6.922;2023-05-07T00:01:36;14.30;99.90
28524;DHT22;15734;50.904;6.922;2023-05-07T00:04:01;14.30;99.90
28524;DHT22;15734;50.904;6.922;2023-05-07T00:06:28;14.40;99.90
28524;DHT22;15734;50.904;6.922;2023-05-07T00:08:54;14.40;99.90
28524;DHT22;15734;50.904;6.922;2023-05-07T00:11:20;14.30;99.90
28524;DHT22;15734;50.904;6.922;2023-05-07T00:13:47;14.30;99.90
28524;DHT22;15734;50.904;6.922;2023-05-07T00:16:12;14.30;99.90
28524;DHT22;15734;50.904;6.922;2023-05-07T00:18:38;14.30;99.90
28524;DHT22;15734;50.904;6.922;2023-05-07T00:21:04;14.30;99.90
28524;DHT22;15734;50.904;6.922;2023-05-07T00:23:29;14.30;99.90
28524;DHT22;15734;50.904;6.922;2023-05-07T00:25:56;14.30;99.90
28524;DHT22;15734;50.904;6.922;2023-05-07T00:28:21;14.30;99.90
28524;DHT22;15734;50.904;6.922;2023-05-07T00:30:47;14.30;99.90
28524;DHT22;15734;50.904;6.922;2023-05-07T00:33:12;14.30;99.90
28524;DHT22;15734;50.904;6.922;2023-05-07T00:35:38;14.30;99.90
28524;DHT22;15734;50.904;6.922;2023-05-07T00:38:03;14.20;99.90
28524;DHT22;15734;50.904;6.922;2023-05-07T00:40:29;14.20;99.90
28524;DHT22;15734;50.904;6.922;2023-05-07T00:42:55;14.20;99.90
28524;DHT22;15734;50.904;6.922;2023-05-07T00:45:26;14.20;99.90
28524;DHT22;15734;50.904;6.922;2023-05-07T00:47:55;14.20;99.90
28524;DHT22;15734;50.904;6.922;2023-05-07T00:50:21;14.20;99.90
28524;DHT22;15734;50.904;6.922;2023-05-07T00:52:47;14.20;99.90
28524;DHT22;15734;50.904;6.922;2023-05-07T00:55:13;14.20;99.90
28524;DHT22;15734;50.904;6.922;2023-05-07T00:57:40;14.20;99.90
28524;DHT22;15734;50.904;6.922;2023-05-07T01:00:07;14.20;99.90
28524;DHT22;15734;50.904;6.922;2023-05-07T01:02:38;14.20;99.90
28524;DHT22;15734;50.904;6.922;2023-05-07T01:05:05;14.30;99.90
28524;DHT22;15734;50.904;6.922;2023-05-07T01:07:32;14.30;99.90
28524;DHT22;15734;50.904;6.922;2023-05-07T01:09:58;14.20;99.90
28524;DHT22;15734;50.904;6.922;2023-05-07T01:12:25;14.20;99.90
28524;DHT22;15734;50.904;6.922;2023-05-07T01:14:53;14.30;99.90
28524;DHT22;15734;50.904;6.922;2023-05-07T01:17:19;14.20;99.90
28524;DHT22;15734;50.904;6.922;2023-05-07T01:19:44;14.20;99.90
28524;DHT22;15734;50.904;6.922;2023-05-07T01:22:10;14.30;99.90
28524;DHT22;15734;50.904;6.922;2023-05-07T01:24:37;14.30;99.90
28524;DHT22;15734;50.904;6.922;2023-05-07T01:27:03;14.30;99.90
28524;DHT22;15734;50.904;6.922;2023-05-07T01:29:29;14.30;99.90
28524;DHT22;15734;50.904;6.922;2023-05-07T01:31:57;14.30;99.90
28524;DHT22;15734;50.904;6.922;2023-05-07T01:34:25;14.30;99.90
28524;DHT22;15734;50.904;6.922;2023-05-07T01:36:54;14.40;99.90
28524;DHT22;15734;50.904;6.922;2023-05-07T01:39:22;14.40;99.90
28524;DHT22;15734;50.904;6.922;2023-05-07T01:41:48;14.30;99.90
28524;DHT22;15734;50.904;6.922;2023-05-07T01:44:15;14.30;99.90
28524;DHT22;15734;50.904;6.922;2023-05-07T01:46:40;14.20;99.90
28524;DHT22;15734;50.904;6.922;2023-05-07T01:49:06;14.20;99.90
28524;DHT22;15734;50.904;6.922;2023-05-07T01:51:32;14.20;99.90
28524;DHT22;15734;50.904;6.922;2023-05-07T01:53:58;14.20;99.90
28524;DHT22;15734;50.904;6.922;2023-05-07T01:56:24;14.20;99.90
28524;DHT22;15734;50.904;6.922;2023-05-07T01:58:50;14.20;99.90
28524;DHT22;15734;50.904;6.922;2023-05-07T02:01:17;14.10;99.90
28524;DHT22;15734;50.904;6.922;2023-05-07T02:03:43;14.10;99.90
28524;DHT22;15734;50.904;6.922;2023-05-07T02:06:09;14.10;99.90
28524;DHT22;15734;50.904;6.922;2023-05-07T02:08:34;14.10;99.90
28524;DHT22;15734;50.904;6.922;2023-05-07T02:11:00;14.10;99.90
28524;DHT22;15734;50.904;6.922;2023-05-07T02:13:31;14.10;99.90
28524;DHT22;15734;50.904;6.922;2023-05-07T02:15:57;14.00;99.90
28524;DHT22;15734;50.904;6.922;2023-05-07T02:18:23;14.00;99.90
28524;DHT22;15734;50.904;6.922;2023-05-07T02:20:48;14.00;99.90
28524;DHT22;15734;50.904;6.922;2023-05-07T02:23:14;14.00;99.90
28524;DHT22;15734;50.904;6.922;2023-05-07T02:25:40;14.00;99.90
28524;DHT22;15734;50.904;6.922;2023-05-07T02:28:05;14.00;99.90
28524;DHT22;15734;50.904;6.922;2023-05-07T02:30:31;14.00;99.90
28524;DHT22;15734;50.904;6.922;2023-05-07T02:32:57;13.90;99.90
28524;DHT22;15734;50.904;6.922;2023-05-07T02:35:24;13.90;99.90
28524;DHT22;15734;50.904;6.922;2023-05-07T02:37:50;13.90;99.90
28524;DHT22;15734;50.904;6.922;2023-05-07T02:40:15;13.90;99.90
28524;DHT22;15734;50.904;6.922;2023-05-07T02:42:41;13.90;99.90
28524;DHT22;15734;50.904;6.922;2023-05-07T02:45:07;13.90;99.90
28524;DHT22;15734;50.904;6.922;2023-05-07T02:47:32;13.90;99.90
28524;DHT22;15734;50.904;6.922;2023-05-07T02:49:58;13.90;99.90
28524;DHT22;15734;50.904;6.922;2023-05-07T02:52:23;13.90;99.90
28524;DHT22;15734;50.904;6.922;2023-05-07T02:54:49;13.80;99.90
28524;DHT22;15734;50.904;6.922;2023-05-07T02:57:15;13.90;99.90
28524;DHT22;15734;50.904;6.922;2023-05-07T02:59:41;13.90;99.90
28524;DHT22;15734;50.904;6.922;2023-05-07T03:02:06;14.00;99.90
28524;DHT22;15734;50.904;6.922;2023-05-07T03:04:32;13.90;99.90
28524;DHT22;15734;50.904;6.922;2023-05-07T03:06:57;14.00;99.90
28524;DHT22;15734;50.904;6.922;2023-05-07T03:09:23;14.00;99.90
28524;DHT22;15734;50.904;6.922;2023-05-07T03:11:48;13.90;99.90
28524;DHT22;15734;50.904;6.922;2023-05-07T03:14:14;13.90;99.90
28524;DHT22;15734;50.904;6.922;2023-05-07T03:16:40;13.90;99.90
28524;DHT22;15734;50.904;6.922;2023-05-07T03:19:05;13.90;99.90
28524;DHT22;15734;50.904;6.922;2023-05-07T03:21:31;13.80;99.90
28524;DHT22;15734;50.904;6.922;2023-05-07T03:23:59;13.80;99.90
28524;DHT22;15734;50.904;6.922;2023-05-07T03:26:24;13.80;99.90
28524;DHT22;15734;50.904;6.922;2023-05-07T03:28:50;13.80;99.90
28524;DHT22;15734;50.904;6.922;2023-05-07T03:31:16;13.80;99.90
28524;DHT22;15734;50.904;6.922;2023-05-07T03:33:53;13.70;99.90
28524;DHT22;15734;50.904;6.922;2023-05-07T03:36:19;13.70;99.90
28524;DHT22;15734;50.904;6.922;2023-05-07T03:38:45;13.60;99.90
28524;DHT22;15734;50.904;6.922;2023-05-07T03:41:11;13.60;99.90
28524;DHT22;15734;50.904;6.922;2023-05-07T03:43:36;13.50;99.90
28524;DHT22;15734;50.904;6.922;2023-05-07T03:46:02;13.50;99.90
28524;DHT22;15734;50.904;6.922;2023-05-07T03:48:27;13.40;99.90
28524;DHT22;15734;50.904;6.922;2023-05-07T03:50:53;13.50;99.90
28524;DHT22;15734;50.904;6.922;2023-05-07T03:53:18;13.40;99.90
28524;DHT22;15734;50.904;6.922;2023-05-07T03:55:44;13.40;99.90
28524;DHT22;15734;50.904;6.922;2023-05-07T03:58:09;13.30;99.90
28524;DHT22;15734;50.904;6.922;2023-05-07T04:00:35;13.30;99.90
28524;DHT22;15734;50.904;6.922;2023-05-07T04:03:04;13.30;99.90
28524;DHT22;15734;50.904;6.922;2023-05-07T04:05:30;13.30;99.90
28524;DHT22;15734;50.904;6.922;2023-05-07T04:07:57;13.40;99.90
28524;DHT22;15734;50.904;6.922;2023-05-07T04:10:23;13.30;99.90
28524;DHT22;15734;50.904;6.922;2023-05-07T04:12:48;13.40;99.90
28524;DHT22;15734;50.904;6.922;2023-05-07T04:15:14;13.30;99.90
28524;DHT22;15734;50.904;6.922;2023-05-07T04:17:39;13.30;99.90
28524;DHT22;15734;50.904;6.922;2023-05-07T04:20:10;13.40;99.90
28524;DHT22;15734;50.904;6.922;2023-05-07T04:22:36;13.40;99.90
28524;DHT22;15734;50.904;6.922;2023-05-07T04:25:02;13.50;99.90
28524;DHT22;15734;50.904;6.922;2023-05-07T04:27:28;13.60;99.90
28524;DHT22;15734;50.904;6.922;2023-05-07T04:29:53;13.60;99.90
28524;DHT22;15734;50.904;6.922;2023-05-07T04:32:21;13.60;99.90
28524;DHT22;15734;50.904;6.922;2023-05-07T04:34:47;13.60;99.90
28524;DHT22;15734;50.904;6.922;2023-05-07T04:37:13;13.70;99.90
28524;DHT22;15734;50.904;6.922;2023-05-07T04:39:38;13.70;99.90
28524;DHT22;15734;50.904;6.922;2023-05-07T04:42:04;13.70;99.90
28524;DHT22;15734;50.904;6.922;2023-05-07T04:44:29;13.70;99.90
28524;DHT22;15734;50.904;6.922;2023-05-07T04:46:56;13.70;99.90
28524;DHT22;15734;50.904;6.922;2023-05-07T04:49:22;13.70;99.90
28524;DHT22;15734;50.904;6.922;2023-05-07T04:51:47;13.70;99.90
28524;DHT22;15734;50.904;6.922;2023-05-07T04:54:13;13.80;99.90
28524;DHT22;15734;50.904;6.922;2023-05-07T04:56:38;13.80;99.90
28524;DHT22;15734;50.904;6.922;2023-05-07T04:59:04;13.80;99.90
28524;DHT22;15734;50.904;6.922;2023-05-07T05:01:29;13.80;99.90
28524;DHT22;15734;50.904;6.922;2023-05-07T05:03:55;13.80;99.90
28524;DHT22;15734;50.904;6.922;2023-05-07T05:06:21;13.90;99.90
28524;DHT22;15734;50.904;6.922;2023-05-07T05:08:46;13.90;99.90
28524;DHT22;15734;50.904;6.922;2023-05-07T05:11:12;13.90;99.90
28524;DHT22;15734;50.904;6.922;2023-05-07T05:13:37;14.00;99.90
28524;DHT22;15734;50.904;6.922;2023-05-07T05:16:03;14.10;99.90
28524;DHT22;15734;50.904;6.922;2023-05-07T05:18:28;14.10;99.90
28524;DHT22;15734;50.904;6.922;2023-05-07T05:20:54;14.20;99.90
28524;DHT22;15734;50.904;6.922;2023-05-07T05:23:19;14.20;99.90
28524;DHT22;15734;50.904;6.922;2023-05-07T05:25:45;14.20;99.90
28524;DHT22;15734;50.904;6.922;2023-05-07T05:28:11;14.30;99.90
28524;DHT22;15734;50.904;6.922;2023-05-07T05:30:36;14.30;99.90
28524;DHT22;15734;50.904;6.922;2023-05-07T05:33:02;14.40;99.90
28524;DHT22;15734;50.904;6.922;2023-05-07T05:35:27;14.50;99.90
28524;DHT22;15734;50.904;6.922;2023-05-07T05:37:53;14.60;99.90
28524;DHT22;15734;50.904;6.922;2023-05-07T05:40:18;14.60;99.90
28524;DHT22;15734;50.904;6.922;2023-05-07T05:42:44;14.60;99.90
28524;DHT22;15734;50.904;6.922;2023-05-07T05:45:10;14.60;99.90
28524;DHT22;15734;50.904;6.922;2023-05-07T05:47:35;14.70;99.90
28524;DHT22;15734;50.904;6.922;2023-05-07T05:50:01;14.70;99.90
28524;DHT22;15734;50.904;6.922;2023-05-07T05:52:26;14.80;99.90
28524;DHT22;15734;50.904;6.922;2023-05-07T05:54:53;14.80;99.90
28524;DHT22;15734;50.904;6.922;2023-05-07T05:57:18;14.80;99.90
28524;DHT22;15734;50.904;6.922;2023-05-07T05:59:44;14.80;99.90
28524;DHT22;15734;50.904;6.922;2023-05-07T06:02:10;14.80;99.90
28524;DHT22;15734;50.904;6.922;2023-05-07T06:04:35;14.80;99.90
28524;DHT22;15734;50.904;6.922;2023-05-07T06:07:01;14.90;99.90
28524;DHT22;15734;50.904;6.922;2023-05-07T06:09:26;14.90;99.90
28524;DHT22;15734;50.904;6.922;2023-05-07T06:11:52;14.90;99.90
28524;DHT22;15734;50.904;6.922;2023-05-07T06:14:17;15.00;99.90
28524;DHT22;15734;50.904;6.922;2023-05-07T06:16:44;15.00;99.90
28524;DHT22;15734;50.904;6.922;2023-05-07T06:19:09;15.10;99.90
28524;DHT22;15734;50.904;6.922;2023-05-07T06:21:35;15.10;99.90
28524;DHT22;15734;50.904;6.922;2023-05-07T06:24:00;15.10;99.90
28524;DHT22;15734;50.904;6.922;2023-05-07T06:26:26;15.20;99.90
28524;DHT22;15734;50.904;6.922;2023-05-07T06:28:51;15.20;99.90
28524;DHT22;15734;50.904;6.922;2023-05-07T06:31:19;15.30;99.90
28524;DHT22;15734;50.904;6.922;2023-05-07T06:33:48;15.30;99.90
28524;DHT22;15734;50.904;6.922;2023-05-07T06:36:14;15.30;99.90
28524;DHT22;15734;50.904;6.922;2023-05-07T06:38:39;15.30;99.90
28524;DHT22;15734;50.904;6.922;2023-05-07T06:41:06;15.30;99.90
28524;DHT22;15734;50.904;6.922;2023-05-07T06:43:32;15.30;99.90
28524;DHT22;15734;50.904;6.922;2023-05-07T06:45:57;15.40;99.90
28524;DHT22;15734;50.904;6.922;2023-05-07T06:48:23;15.40;99.90
28524;DHT22;15734;50.904;6.922;2023-05-07T06:50:48;15.40;99.90
28524;DHT22;15734;50.904;6.922;2023-05-07T06:53:14;15.40;99.90
28524;DHT22;15734;50.904;6.922;2023-05-07T06:55:39;15.40;99.90
28524;DHT22;15734;50.904;6.922;2023-05-07T06:58:06;15.40;99.90
28524;DHT22;15734;50.904;6.922;2023-05-07T07:00:31;15.40;99.90
28524;DHT22;15734;50.904;6.922;2023-05-07T07:02:57;15.40;99.90
28524;DHT22;15734;50.904;6.922;2023-05-07T07:05:22;15.50;99.90
28524;DHT22;15734;50.904;6.922;2023-05-07T07:07:48;15.50;99.90
28524;DHT22;15734;50.904;6.922;2023-05-07T07:10:21;15.50;99.90
28524;DHT22;15734;50.904;6.922;2023-05-07T07:12:46;15.60;99.90
28524;DHT22;15734;50.904;6.922;2023-05-07T07:15:12;15.70;99.90
28524;DHT22;15734;50.904;6.922;2023-05-07T07:17:38;15.80;99.90
28524;DHT22;15734;50.904;6.922;2023-05-07T07:20:04;15.70;99.90
28524;DHT22;15734;50.904;6.922;2023-05-07T07:22:30;15.80;99.90
28524;DHT22;15734;50.904;6.922;2023-05-07T07:24:55;15.90;99.90
28524;DHT22;15734;50.904;6.922;2023-05-07T07:27:21;16.00;99.90
28524;DHT22;15734;50.904;6.922;2023-05-07T07:29:46;16.00;99.90
28524;DHT22;15734;50.904;6.922;2023-05-07T07:32:12;16.10;99.90
28524;DHT22;15734;50.904;6.922;2023-05-07T07:34:37;16.10;99.90
28524;DHT22;15734;50.904;6.922;2023-05-07T07:37:03;16.30;99.90
28524;DHT22;15734;50.904;6.922;2023-05-07T07:39:32;16.40;99.90
28524;DHT22;15734;50.904;6.922;2023-05-07T07:41:57;16.50;99.90
28524;DHT22;15734;50.904;6.922;2023-05-07T07:44:23;16.60;99.90
28524;DHT22;15734;50.904;6.922;2023-05-07T07:46:48;16.60;99.90
28524;DHT22;15734;50.904;6.922;2023-05-07T07:49:14;16.70;99.90
28524;DHT22;15734;50.904;6.922;2023-05-07T07:51:40;16.80;99.90
28524;DHT22;15734;50.904;6.922;2023-05-07T07:54:06;16.90;99.90
28524;DHT22;15734;50.904;6.922;2023-05-07T07:56:32;17.00;99.90
28524;DHT22;15734;50.904;6.922;2023-05-07T07:59:01;17.10;99.90
28524;DHT22;15734;50.904;6.922;2023-05-07T08:01:28;17.10;99.90
28524;DHT22;15734;50.904;6.922;2023-05-07T08:03:54;17.30;99.90
28524;DHT22;15734;50.904;6.922;2023-05-07T08:06:20;17.30;99.90
28524;DHT22;15734;50.904;6.922;2023-05-07T08:08:45;17.30;99.90
28524;DHT22;15734;50.904;6.922;2023-05-07T08:11:11;17.30;99.90
28524;DHT22;15734;50.904;6.922;2023-05-07T08:13:38;17.40;99.90
28524;DHT22;15734;50.904;6.922;2023-05-07T08:16:04;17.60;99.90
28524;DHT22;15734;50.904;6.922;2023-05-07T08:18:30;17.50;99.90
28524;DHT22;15734;50.904;6.922;2023-05-07T08:20:55;17.60;99.90
28524;DHT22;15734;50.904;6.922;2023-05-07T08:23:21;17.70;99.90
28524;DHT22;15734;50.904;6.922;2023-05-07T08:25:48;17.70;99.90
28524;DHT22;15734;50.904;6.922;2023-05-07T08:28:13;17.80;99.90
28524;DHT22;15734;50.904;6.922;2023-05-07T08:30:39;17.90;99.90
28524;DHT22;15734;50.904;6.922;2023-05-07T08:33:04;17.90;99.90
28524;DHT22;15734;50.904;6.922;2023-05-07T08:35:30;17.90;99.90
28524;DHT22;15734;50.904;6.922;2023-05-07T08:37:56;18.00;99.90
28524;DHT22;15734;50.904;6.922;2023-05-07T08:40:25;18.10;99.90
28524;DHT22;15734;50.904;6.922;2023-05-07T08:42:52;18.20;99.90
28524;DHT22;15734;50.904;6.922;2023-05-07T08:45:19;18.20;99.90
28524;DHT22;15734;50.904;6.922;2023-05-07T08:47:47;18.20;99.90
28524;DHT22;15734;50.904;6.922;2023-05-07T08:50:16;18.30;99.90
28524;DHT22;15734;50.904;6.922;2023-05-07T08:52:42;18.40;99.90
28524;DHT22;15734;50.904;6.922;2023-05-07T08:55:08;18.30;99.90
28524;DHT22;15734;50.904;6.922;2023-05-07T08:57:34;18.30;99.90
28524;DHT22;15734;50.904;6.922;2023-05-07T09:00:01;18.40;99.90
28524;DHT22;15734;50.904;6.922;2023-05-07T09:02:26;18.50;99.90
28524;DHT22;15734;50.904;6.922;2023-05-07T09:04:52;18.70;99.90
28524;DHT22;15734;50.904;6.922;2023-05-07T09:07:19;18.80;99.90
28524;DHT22;15734;50.904;6.922;2023-05-07T09:09:45;18.80;99.90
28524;DHT22;15734;50.904;6.922;2023-05-07T09:12:11;18.90;99.90
28524;DHT22;15734;50.904;6.922;2023-05-07T09:14:37;19.00;99.90
28524;DHT22;15734;50.904;6.922;2023-05-07T09:17:03;19.10;99.90
28524;DHT22;15734;50.904;6.922;2023-05-07T09:19:28;19.00;99.90
28524;DHT22;15734;50.904;6.922;2023-05-07T09:22:02;19.20;99.90
28524;DHT22;15734;50.904;6.922;2023-05-07T09:24:29;19.30;99.90
28524;DHT22;15734;50.904;6.922;2023-05-07T09:26:59;19.50;99.90
28524;DHT22;15734;50.904;6.922;2023-05-07T09:29:25;19.60;99.90
28524;DHT22;15734;50.904;6.922;2023-05-07T09:31:51;19.70;99.90
28524;DHT22;15734;50.904;6.922;2023-05-07T09:34:16;19.80;99.90
28524;DHT22;15734;50.904;6.922;2023-05-07T09:36:42;20.00;99.90
28524;DHT22;15734;50.904;6.922;2023-05-07T09:39:08;20.10;99.90
28524;DHT22;15734;50.904;6.922;2023-05-07T09:41:44;20.40;99.90
28524;DHT22;15734;50.904;6.922;2023-05-07T09:44:10;20.40;99.90
28524;DHT22;15734;50.904;6.922;2023-05-07T09:46:38;20.60;99.90
28524;DHT22;15734;50.904;6.922;2023-05-07T09:49:07;20.80;99.90
28524;DHT22;15734;50.904;6.922;2023-05-07T09:51:47;20.80;99.90
28524;DHT22;15734;50.904;6.922;2023-05-07T09:54:14;20.90;99.90
28524;DHT22;15734;50.904;6.922;2023-05-07T09:56:40;20.80;99.90
28524;DHT22;15734;50.904;6.922;2023-05-07T09:59:08;20.80;99.90
28524;DHT22;15734;50.904;6.922;2023-05-07T10:01:36;20.70;99.90
28524;DHT22;15734;50.904;6.922;2023-05-07T10:04:03;20.70;99.90
28524;DHT22;15734;50.904;6.922;2023-05-07T10:06:34;20.80;99.90
28524;DHT22;15734;50.904;6.922;2023-05-07T10:09:01;20.90;99.90
28524;DHT22;15734;50.904;6.922;2023-05-07T10:11:28;20.80;99.90
28524;DHT22;15734;50.904;6.922;2023-05-07T10:13:54;20.90;99.90
28524;DHT22;15734;50.904;6.922;2023-05-07T10:16:20;21.20;99.90
28524;DHT22;15734;50.904;6.922;2023-05-07T10:18:46;21.40;99.90
28524;DHT22;15734;50.904;6.922;2023-05-07T10:21:22;21.70;99.90
28524;DHT22;15734;50.904;6.922;2023-05-07T10:23:51;21.80;99.90
28524;DHT22;15734;50.904;6.922;2023-05-07T10:26:18;22.00;99.90
28524;DHT22;15734;50.904;6.922;2023-05-07T10:28:49;22.20;99.90
28524;DHT22;15734;50.904;6.922;2023-05-07T10:34:23;22.30;99.90
28524;DHT22;15734;50.904;6.922;2023-05-07T10:36:51;22.20;99.90
28524;DHT22;15734;50.904;6.922;2023-05-07T10:39:17;22.00;99.90
28524;DHT22;15734;50.904;6.922;2023-05-07T10:41:44;21.70;99.90
28524;DHT22;15734;50.904;6.922;2023-05-07T10:44:10;21.60;99.90
28524;DHT22;15734;50.904;6.922;2023-05-07T10:46:36;21.80;99.90
28524;DHT22;15734;50.904;6.922;2023-05-07T10:51:34;22.40;99.90
28524;DHT22;15734;50.904;6.922;2023-05-07T10:56:39;22.80;99.90
28524;DHT22;15734;50.904;6.922;2023-05-07T10:59:38;22.70;99.90
28524;DHT22;15734;50.904;6.922;2023-05-07T11:02:07;22.80;99.90
28524;DHT22;15734;50.904;6.922;2023-05-07T11:04:34;23.10;99.90
28524;DHT22;15734;50.904;6.922;2023-05-07T11:09:54;23.50;99.90
28524;DHT22;15734;50.904;6.922;2023-05-07T11:15:08;24.40;99.90
28524;DHT22;15734;50.904;6.922;2023-05-07T11:17:35;24.70;99.90
28524;DHT22;15734;50.904;6.922;2023-05-07T11:20:16;24.80;99.90
28524;DHT22;15734;50.904;6.922;2023-05-07T11:22:42;25.10;99.90
28524;DHT22;15734;50.904;6.922;2023-05-07T11:25:08;25.20;99.90
28524;DHT22;15734;50.904;6.922;2023-05-07T11:27:34;25.40;99.90
28524;DHT22;15734;50.904;6.922;2023-05-07T11:30:00;24.80;99.90
28524;DHT22;15734;50.904;6.922;2023-05-07T11:32:30;24.70;99.90
28524;DHT22;15734;50.904;6.922;2023-05-07T11:34:57;24.30;99.90
28524;DHT22;15734;50.904;6.922;2023-05-07T11:37:24;24.20;99.90
28524;DHT22;15734;50.904;6.922;2023-05-07T11:39:51;24.00;99.90
28524;DHT22;15734;50.904;6.922;2023-05-07T11:42:37;23.90;99.90
28524;DHT22;15734;50.904;6.922;2023-05-07T11:45:04;23.80;99.90
28524;DHT22;15734;50.904;6.922;2023-05-07T11:47:31;23.40;99.90
28524;DHT22;15734;50.904;6.922;2023-05-07T11:49:57;22.90;99.90
28524;DHT22;15734;50.904;6.922;2023-05-07T11:52:27;23.00;99.90
28524;DHT22;15734;50.904;6.922;2023-05-07T11:54:57;22.70;99.90
28524;DHT22;15734;50.904;6.922;2023-05-07T11:57:24;22.50;99.90
28524;DHT22;15734;50.904;6.922;2023-05-07T11:59:54;22.40;99.90
28524;DHT22;15734;50.904;6.922;2023-05-07T12:02:19;22.40;99.90
28524;DHT22;15734;50.904;6.922;2023-05-07T12:04:45;22.60;99.90
28524;DHT22;15734;50.904;6.922;2023-05-07T12:07:14;22.40;99.90
28524;DHT22;15734;50.904;6.922;2023-05-07T12:09:44;22.50;99.90
28524;DHT22;15734;50.904;6.922;2023-05-07T12:12:10;22.40;99.90
28524;DHT22;15734;50.904;6.922;2023-05-07T12:14:40;22.30;99.90
28524;DHT22;15734;50.904;6.922;2023-05-07T12:17:09;22.40;99.90
28524;DHT22;15734;50.904;6.922;2023-05-07T12:19:36;22.50;99.90
28524;DHT22;15734;50.904;6.922;2023-05-07T12:22:05;22.10;99.90
28524;DHT22;15734;50.904;6.922;2023-05-07T12:24:49;22.00;99.90
28524;DHT22;15734;50.904;6.922;2023-05-07T12:27:15;22.20;99.90
28524;DHT22;15734;50.904;6.922;2023-05-07T12:29:48;21.90;99.90
28524;DHT22;15734;50.904;6.922;2023-05-07T12:32:15;21.90;99.90
28524;DHT22;15734;50.904;6.922;2023-05-07T12:34:41;21.80;99.90
28524;DHT22;15734;50.904;6.922;2023-05-07T12:37:07;21.60;99.90
28524;DHT22;15734;50.904;6.922;2023-05-07T12:39:33;21.60;99.90
28524;DHT22;15734;50.904;6.922;2023-05-07T12:41:59;21.60;99.90
28524;DHT22;15734;50.904;6.922;2023-05-07T12:44:29;21.60;99.90
28524;DHT22;15734;50.904;6.922;2023-05-07T12:46:55;21.40;99.90
28524;DHT22;15734;50.904;6.922;2023-05-07T12:49:21;21.30;99.90
28524;DHT22;15734;50.904;6.922;2023-05-07T12:51:47;21.20;99.90
28524;DHT22;15734;50.904;6.922;2023-05-07T12:54:14;21.30;99.90
28524;DHT22;15734;50.904;6.922;2023-05-07T12:56:39;21.30;99.90
28524;DHT22;15734;50.904;6.922;2023-05-07T12:59:05;21.20;99.90
28524;DHT22;15734;50.904;6.922;2023-05-07T13:01:33;21.30;99.90
28524;DHT22;15734;50.904;6.922;2023-05-07T13:04:08;21.20;99.90
28524;DHT22;15734;50.904;6.922;2023-05-07T13:06:33;21.20;99.90
28524;DHT22;15734;50.904;6.922;2023-05-07T13:08:59;21.00;99.90
28524;DHT22;15734;50.904;6.922;2023-05-07T13:11:25;21.00;99.90
28524;DHT22;15734;50.904;6.922;2023-05-07T13:13:51;21.00;99.90
28524;DHT22;15734;50.904;6.922;2023-05-07T13:16:16;21.00;99.90
28524;DHT22;15734;50.904;6.922;2023-05-07T13:18:42;21.10;99.90
28524;DHT22;15734;50.904;6.922;2023-05-07T13:21:10;21.10;99.90
28524;DHT22;15734;50.904;6.922;2023-05-07T13:23:38;20.70;99.90
28524;DHT22;15734;50.904;6.922;2023-05-07T13:26:03;20.20;99.90
28524;DHT22;15734;50.904;6.922;2023-05-07T13:28:29;20.20;99.90
28524;DHT22;15734;50.904;6.922;2023-05-07T13:30:54;20.30;99.90
28524;DHT22;15734;50.904;6.922;2023-05-07T13:33:20;20.20;99.90
28524;DHT22;15734;50.904;6.922;2023-05-07T13:35:46;20.20;99.90
28524;DHT22;15734;50.904;6.922;2023-05-07T13:38:11;20.40;99.90
28524;DHT22;15734;50.904;6.922;2023-05-07T13:40:37;20.70;99.90
28524;DHT22;15734;50.904;6.922;2023-05-07T13:43:02;20.70;99.90
28524;DHT22;15734;50.904;6.922;2023-05-07T13:45:28;20.80;99.90
28524;DHT22;15734;50.904;6.922;2023-05-07T13:47:57;21.00;99.90
28524;DHT22;15734;50.904;6.922;2023-05-07T13:50:23;21.00;99.90
28524;DHT22;15734;50.904;6.922;2023-05-07T13:52:50;21.00;99.90
28524;DHT22;15734;50.904;6.922;2023-05-07T13:55:19;21.00;99.90
28524;DHT22;15734;50.904;6.922;2023-05-07T13:57:45;21.00;99.90
28524;DHT22;15734;50.904;6.922;2023-05-07T14:00:12;21.00;99.90
28524;DHT22;15734;50.904;6.922;2023-05-07T14:02:37;21.10;99.90
28524;DHT22;15734;50.904;6.922;2023-05-07T14:05:03;21.10;99.90
28524;DHT22;15734;50.904;6.922;2023-05-07T14:07:29;21.00;99.90
28524;DHT22;15734;50.904;6.922;2023-05-07T14:09:56;21.10;99.90
28524;DHT22;15734;50.904;6.922;2023-05-07T14:12:21;21.20;99.90
28524;DHT22;15734;50.904;6.922;2023-05-07T14:14:47;21.20;99.90
28524;DHT22;15734;50.904;6.922;2023-05-07T14:17:18;21.10;99.90
28524;DHT22;15734;50.904;6.922;2023-05-07T14:19:44;20.90;99.90
28524;DHT22;15734;50.904;6.922;2023-05-07T14:22:09;20.80;99.90
28524;DHT22;15734;50.904;6.922;2023-05-07T14:24:36;20.80;99.90
28524;DHT22;15734;50.904;6.922;2023-05-07T14:27:01;20.70;99.90
28524;DHT22;15734;50.904;6.922;2023-05-07T14:29:27;20.50;99.90
28524;DHT22;15734;50.904;6.922;2023-05-07T14:31:53;20.40;99.90
28524;DHT22;15734;50.904;6.922;2023-05-07T14:34:19;20.20;99.90
28524;DHT22;15734;50.904;6.922;2023-05-07T14:36:44;20.20;99.90
28524;DHT22;15734;50.904;6.922;2023-05-07T14:39:10;20.20;99.90
28524;DHT22;15734;50.904;6.922;2023-05-07T14:41:35;20.30;99.90
28524;DHT22;15734;50.904;6.922;2023-05-07T14:44:01;20.30;99.90
28524;DHT22;15734;50.904;6.922;2023-05-07T14:46:29;20.30;99.90
28524;DHT22;15734;50.904;6.922;2023-05-07T14:48:56;20.50;99.90
28524;DHT22;15734;50.904;6.922;2023-05-07T14:51:21;20.40;99.90
28524;DHT22;15734;50.904;6.922;2023-05-07T14:53:47;20.30;99.90
28524;DHT22;15734;50.904;6.922;2023-05-07T14:56:13;20.20;99.90
28524;DHT22;15734;50.904;6.922;2023-05-07T14:58:38;20.00;99.90
28524;DHT22;15734;50.904;6.922;2023-05-07T15:01:04;19.90;99.90
28524;DHT22;15734;50.904;6.922;2023-05-07T15:03:30;19.50;99.90
28524;DHT22;15734;50.904;6.922;2023-05-07T15:05:55;19.50;99.90
28524;DHT22;15734;50.904;6.922;2023-05-07T15:08:21;19.30;99.90
28524;DHT22;15734;50.904;6.922;2023-05-07T15:10:47;19.10;99.90
28524;DHT22;15734;50.904;6.922;2023-05-07T15:13:13;19.10;99.90
28524;DHT22;15734;50.904;6.922;2023-05-07T15:15:38;19.20;99.90
28524;DHT22;15734;50.904;6.922;2023-05-07T15:18:04;19.30;99.90
28524;DHT22;15734;50.904;6.922;2023-05-07T15:20:30;19.40;99.90
28524;DHT22;15734;50.904;6.922;2023-05-07T15:22:56;19.50;99.90
28524;DHT22;15734;50.904;6.922;2023-05-07T15:25:22;19.70;99.90
28524;DHT22;15734;50.904;6.922;2023-05-07T15:27:48;19.70;99.90
28524;DHT22;15734;50.904;6.922;2023-05-07T15:30:14;19.80;99.90
28524;DHT22;15734;50.904;6.922;2023-05-07T15:32:41;19.90;99.90
28524;DHT22;15734;50.904;6.922;2023-05-07T15:35:07;19.90;99.90
28524;DHT22;15734;50.904;6.922;2023-05-07T15:37:33;20.00;99.90
28524;DHT22;15734;50.904;6.922;2023-05-07T15:39:59;20.10;99.90